GDENN ESUT-ENGR

Flight info

Callsign GDENN
Flight time N/A
Altitude FL070
Route ESUT ENHT LOW LEVEL VFR
Aircraft AEST/L-S/N

Departure

Time 2026-04-22 18:02
Airport Hemavan Airport (ESUT)

Arrival

Time N/A
Airport ENGR
Time Latitude Longitude Altitude Speed Heading
2026-04-22 17:17 65.81157 15.08036 1583 ft 0 kts 157°
2026-04-22 17:58 65.81153 15.08044 1584 ft 2 kts 129°
2026-04-22 17:58 65.81151 15.08059 1584 ft 0 kts 94°
2026-04-22 17:58 65.81153 15.08077 1590 ft 0 kts 62°
2026-04-22 17:58 65.81175 15.08073 1592 ft 15 kts 304°
2026-04-22 17:59 65.81184 15.07853 1540 ft 10 kts 247°
2026-04-22 17:59 65.81182 15.07840 1538 ft 0 kts 246°
2026-04-22 18:00 65.81170 15.07780 1527 ft 9 kts 244°
2026-04-22 18:00 65.81123 15.07650 1505 ft 12 kts 180°
2026-04-22 18:01 65.80823 15.08012 1507 ft 84 kts 153°
2026-04-22 18:01 65.80229 15.08658 1647 ft 95 kts 155°
2026-04-22 18:01 65.79578 15.09573 1810 ft 117 kts 144°
2026-04-22 18:01 65.78747 15.10649 1908 ft 154 kts 160°
2026-04-22 18:02 65.77819 15.11504 2575 ft 125 kts 157°
2026-04-22 18:02 65.76930 15.12216 2601 ft 148 kts 170°
2026-04-22 18:02 65.75909 15.12513 2897 ft 140 kts 175°
2026-04-22 18:02 65.75006 15.13072 3010 ft 150 kts 133°
2026-04-22 18:03 65.74529 15.15307 3210 ft 148 kts 99°
2026-04-22 18:03 65.74547 15.17750 3499 ft 143 kts 84°
2026-04-22 18:03 65.74647 15.20191 3621 ft 148 kts 87°
2026-04-22 18:03 65.74574 15.22771 3605 ft 156 kts 91°
2026-04-22 18:04 65.74595 15.25331 3793 ft 150 kts 87°
2026-04-22 18:04 65.74626 15.27939 3756 ft 160 kts 88°
2026-04-22 18:04 65.74739 15.30613 3856 ft 157 kts 81°
2026-04-22 18:04 65.74836 15.33382 3597 ft 179 kts 84°
2026-04-22 18:05 65.75206 15.36367 3381 ft 186 kts 54°
2026-04-22 18:05 65.76223 15.37957 3479 ft 178 kts 12°
2026-04-22 18:05 65.77465 15.38286 3420 ft 178 kts
2026-04-22 18:05 65.78668 15.38153 3541 ft 171 kts 353°
2026-04-22 18:06 65.79856 15.37767 3511 ft 173 kts 349°
2026-04-22 18:06 65.81032 15.37258 3547 ft 172 kts 348°
2026-04-22 18:06 65.82210 15.36625 3538 ft 173 kts 344°
2026-04-22 18:06 65.83323 15.35632 3625 ft 169 kts 336°
2026-04-22 18:07 65.84385 15.34399 3626 ft 171 kts 330°
2026-04-22 18:07 65.85426 15.32979 3638 ft 171 kts 329°
2026-04-22 18:07 65.86423 15.31415 3654 ft 171 kts 321°
2026-04-22 18:07 65.87229 15.29288 3653 ft 172 kts 300°
2026-04-22 18:08 65.87726 15.26659 3672 ft 171 kts 290°
2026-04-22 18:08 65.88141 15.23930 3688 ft 171 kts 290°
2026-04-22 18:08 65.88514 15.21171 3698 ft 172 kts 285°
2026-04-22 18:08 65.88803 15.18307 3667 ft 175 kts 278°
2026-04-22 18:09 65.88566 15.15448 3583 ft 178 kts 238°
2026-04-22 18:09 65.87799 15.13111 3657 ft 172 kts 226°
2026-04-22 18:09 65.86950 15.11082 3668 ft 172 kts 223°
2026-04-22 18:09 65.86095 15.09065 3521 ft 172 kts 226°
2026-04-22 18:10 65.85233 15.07021 3342 ft 173 kts 221°
2026-04-22 18:10 65.84221 15.05499 3127 ft 165 kts 202°
2026-04-22 18:10 65.83220 15.05017 2678 ft 135 kts 175°
2026-04-22 18:10 65.82437 15.05724 2130 ft 117 kts 149°
2026-04-22 18:11 65.81753 15.06734 1775 ft 110 kts 150°
2026-04-22 18:11 65.81173 15.07543 1534 ft 82 kts 158°
2026-04-22 18:11 65.80679 15.08189 1504 ft 94 kts 154°
2026-04-22 18:11 65.80072 15.08942 1666 ft 92 kts 154°
2026-04-22 18:12 65.79469 15.09664 1862 ft 108 kts 156°
2026-04-22 18:12 65.78655 15.10271 2057 ft 138 kts 159°
2026-04-22 18:12 65.78134 15.10525 2720 ft 95 kts 196°
2026-04-22 18:12 65.77581 15.08574 3067 ft 126 kts 266°
2026-04-22 18:13 65.77862 15.06456 3240 ft 143 kts 311°
2026-04-22 18:13 65.78640 15.04997 3507 ft 141 kts 335°
2026-04-22 18:13 65.79617 15.04285 3558 ft 149 kts 334°
2026-04-22 18:13 65.80210 15.02169 3566 ft 153 kts 295°
2026-04-22 18:14 65.80644 15.00082 3959 ft 130 kts 297°
2026-04-22 18:14 65.81000 14.97900 3737 ft 149 kts 285°
2026-04-22 18:14 65.81223 14.95453 3801 ft 143 kts 280°
2026-04-22 18:14 65.81426 14.93050 3736 ft 150 kts 283°
2026-04-22 18:15 65.81686 14.90539 3660 ft 154 kts 287°
2026-04-22 18:15 65.82005 14.88103 3711 ft 149 kts 288°
2026-04-22 18:15 65.82425 14.85747 3613 ft 155 kts 297°
2026-04-22 18:15 65.82860 14.83346 3608 ft 153 kts 288°
2026-04-22 18:16 65.83191 14.80919 3631 ft 151 kts 287°
2026-04-22 18:16 65.83467 14.78421 3555 ft 155 kts 281°
2026-04-22 18:16 65.83663 14.75850 3558 ft 153 kts 279°
2026-04-22 18:16 65.83826 14.73316 3564 ft 152 kts 274°
2026-04-22 18:17 65.83462 14.70943 3477 ft 154 kts 233°
2026-04-22 18:17 65.82713 14.69098 3463 ft 154 kts 220°
2026-04-22 18:17 65.81832 14.67632 3426 ft 155 kts 209°
2026-04-22 18:17 65.80883 14.66396 3436 ft 154 kts 213°
2026-04-22 18:18 65.80154 14.64649 3519 ft 147 kts 236°
2026-04-22 18:18 65.79715 14.62397 3466 ft 151 kts 251°
2026-04-22 18:18 65.79405 14.59909 3385 ft 154 kts 254°
2026-04-22 18:18 65.79152 14.57428 3450 ft 149 kts 260°
2026-04-22 18:19 65.79113 14.54881 3357 ft 155 kts 274°
2026-04-22 18:19 65.79151 14.52258 3342 ft 153 kts 272°
2026-04-22 18:19 65.79319 14.49724 3327 ft 153 kts 281°
2026-04-22 18:19 65.79519 14.47181 3319 ft 153 kts 279°
2026-04-22 18:20 65.79689 14.44655 3328 ft 151 kts 277°
2026-04-22 18:20 65.79712 14.42086 3275 ft 154 kts 264°
2026-04-22 18:20 65.79045 14.40410 3256 ft 159 kts 190°
2026-04-22 18:20 65.77878 14.40519 3302 ft 166 kts 171°
2026-04-22 18:21 65.76834 14.41053 3477 ft 147 kts 167°
2026-04-22 18:21 65.75837 14.41610 3402 ft 146 kts 171°
2026-04-22 18:21 65.74814 14.41877 3269 ft 150 kts 178°
2026-04-22 18:21 65.73778 14.41852 3171 ft 150 kts 183°
2026-04-22 18:22 65.72737 14.41707 3065 ft 150 kts 182°
2026-04-22 18:22 65.71696 14.41683 2985 ft 150 kts 179°
2026-04-22 18:22 65.70651 14.41877 2843 ft 153 kts 166°
2026-04-22 18:22 65.69645 14.42397 2776 ft 149 kts 197°
2026-04-22 18:23 65.69180 14.40422 2532 ft 153 kts 271°
2026-04-22 18:23 65.69181 14.37785 2391 ft 154 kts 271°
2026-04-22 18:23 65.69239 14.35251 2352 ft 150 kts 273°
2026-04-22 18:24 65.69178 14.30417 2391 ft 134 kts 242°
2026-04-22 18:24 65.68584 14.28698 2316 ft 135 kts 219°
2026-04-22 18:24 65.67238 14.25505 2079 ft 143 kts 267°
2026-04-22 18:25 65.67333 14.23064 1951 ft 147 kts 278°
2026-04-22 18:25 65.67633 14.20748 1906 ft 145 kts 296°
2026-04-22 18:25 65.67965 14.18443 1860 ft 142 kts 280°
2026-04-22 18:26 65.67382 14.14235 1808 ft 140 kts 234°
2026-04-22 18:26 65.66655 14.12546 1698 ft 142 kts 216°
2026-04-22 18:26 65.65849 14.11220 1721 ft 136 kts 217°
2026-04-22 18:26 65.65192 14.09776 1824 ft 122 kts 255°
2026-04-22 18:27 65.65250 14.07773 1813 ft 121 kts 276°
2026-04-22 18:27 65.64861 14.06479 1739 ft 112 kts 183°
2026-04-22 18:27 65.63990 14.06349 1807 ft 128 kts 188°
2026-04-22 18:27 65.63086 14.05895 2024 ft 146 kts 197°
2026-04-22 18:28 65.62059 14.05157 2006 ft 152 kts 198°
2026-04-22 18:28 65.61154 14.04393 1890 ft 128 kts 198°
2026-04-22 18:28 65.60369 14.03794 1588 ft 114 kts 199°
2026-04-22 18:28 65.59662 14.03046 1424 ft 111 kts 220°
2026-04-22 18:29 65.59395 14.01403 1225 ft 113 kts 270°
2026-04-22 18:29 65.59447 13.99609 732 ft 96 kts 274°
2026-04-22 18:29 65.59460 13.98025 794 ft 92 kts 269°
2026-04-22 18:29 65.59395 13.96514 990 ft 92 kts 248°
2026-04-22 18:30 65.59041 13.94926 1108 ft 126 kts 238°
2026-04-22 18:30 65.58066 13.90667 1675 ft 153 kts 240°
2026-04-22 18:30 65.57469 13.88537 1799 ft 158 kts 236°
2026-04-22 18:31 65.56836 13.86300 1874 ft 162 kts 235°
2026-04-22 18:31 65.56187 13.84097 2002 ft 163 kts 237°
2026-04-22 18:31 65.55573 13.81740 2047 ft 168 kts 239°
2026-04-22 18:31 65.54963 13.79379 2200 ft 164 kts 236°
2026-04-22 18:32 65.54294 13.77155 2308 ft 165 kts 232°
2026-04-22 18:32 65.53424 13.75292 2265 ft 174 kts 210°
2026-04-22 18:32 65.52311 13.74177 2395 ft 170 kts 197°
2026-04-22 18:32 65.51199 13.73479 2601 ft 165 kts 194°
2026-04-22 18:33 65.50058 13.72815 2567 ft 173 kts 194°
2026-04-22 18:33 65.48877 13.72266 2665 ft 172 kts 187°
2026-04-22 18:33 65.47700 13.72052 2798 ft 169 kts 180°
2026-04-22 18:33 65.46514 13.71920 2824 ft 173 kts 188°
2026-04-22 18:34 65.45315 13.71587 2887 ft 174 kts 191°
2026-04-22 18:34 65.44163 13.70804 2987 ft 172 kts 202°
2026-04-22 18:34 65.43090 13.69572 3070 ft 171 kts 210°
2026-04-22 18:34 65.42034 13.68258 3145 ft 172 kts 205°
2026-04-22 18:35 65.40917 13.67257 3212 ft 172 kts 199°
2026-04-22 18:35 65.39799 13.66276 3290 ft 172 kts 202°
2026-04-22 18:35 65.38699 13.65152 3360 ft 173 kts 205°
2026-04-22 18:35 65.37611 13.63918 3411 ft 174 kts 210°
2026-04-22 18:36 65.36586 13.62388 3459 ft 174 kts 215°
2026-04-22 18:36 65.35575 13.60691 3362 ft 182 kts 214°
2026-04-22 18:36 65.34487 13.59080 3328 ft 184 kts 210°
2026-04-22 18:36 65.33376 13.57685 3436 ft 178 kts 208°
2026-04-22 18:37 65.32267 13.56373 3442 ft 180 kts 206°
2026-04-22 18:37 65.31130 13.55064 3418 ft 183 kts 205°
2026-04-22 18:37 65.30360 13.54248 3450 ft 182 kts 204°
2026-04-22 18:37 65.28809 13.52662 3448 ft 184 kts 204°
2026-04-22 18:38 65.27631 13.51438 3414 ft 185 kts 205°
2026-04-22 18:38 65.26507 13.49968 3410 ft 184 kts 215°
2026-04-22 18:38 65.25527 13.47985 3345 ft 186 kts 219°
2026-04-22 18:39 65.23137 13.45881 3328 ft 183 kts 194°
2026-04-22 18:39 65.21893 13.45296 3321 ft 183 kts 189°
2026-04-22 18:39 65.20635 13.44757 3277 ft 185 kts 194°
2026-04-22 18:39 65.19402 13.43907 3254 ft 185 kts 200°
2026-04-22 18:40 65.18236 13.42673 3253 ft 184 kts 208°
2026-04-22 18:40 65.17072 13.41397 3233 ft 184 kts 203°
2026-04-22 18:40 65.15900 13.40319 3205 ft 180 kts 199°
2026-04-22 18:40 65.14706 13.39352 3033 ft 185 kts 201°
2026-04-22 18:41 65.13497 13.38290 2943 ft 185 kts 199°
2026-04-22 18:41 65.12304 13.37273 2945 ft 180 kts 201°
2026-04-22 18:41 65.11124 13.36289 2869 ft 182 kts 196°
2026-04-22 18:41 65.09886 13.35553 2765 ft 185 kts 199°
2026-04-22 18:42 65.08724 13.34270 2720 ft 184 kts 207°
2026-04-22 18:42 65.07581 13.33037 2731 ft 180 kts 199°
2026-04-22 18:42 65.06381 13.32123 2633 ft 183 kts 200°
2026-04-22 18:42 65.05179 13.31123 2616 ft 182 kts 200°
2026-04-22 18:43 65.04003 13.30087 2652 ft 180 kts 202°
2026-04-22 18:43 65.02845 13.28963 2616 ft 181 kts 202°
2026-04-22 18:43 65.01679 13.27798 2569 ft 183 kts 207°
2026-04-22 18:43 65.00555 13.26436 2557 ft 181 kts 206°
2026-04-22 18:44 64.99406 13.25266 2542 ft 180 kts 204°
2026-04-22 18:44 64.98259 13.24045 2527 ft 182 kts 204°
2026-04-22 18:44 64.97100 13.22867 2559 ft 181 kts 205°
2026-04-22 18:44 64.96017 13.21370 2517 ft 182 kts 217°
2026-04-22 18:45 64.95005 13.19569 2491 ft 181 kts 214°
2026-04-22 18:45 64.93852 13.18368 2388 ft 185 kts 198°
2026-04-22 18:45 64.92756 13.16904 2294 ft 186 kts 237°
2026-04-22 18:45 64.92626 13.13925 2008 ft 196 kts 282°
2026-04-22 18:46 64.92553 13.10803 1830 ft 197 kts 244°
2026-04-22 18:46 64.91614 13.08436 1675 ft 195 kts 216°
2026-04-22 18:46 64.90458 13.07273 1966 ft 177 kts 190°
2026-04-22 18:46 64.89238 13.06893 1939 ft 179 kts 191°
2026-04-22 18:47 64.88008 13.06370 1913 ft 180 kts 192°
2026-04-22 18:47 64.86801 13.05665 1893 ft 181 kts 204°
2026-04-22 18:47 64.85742 13.03960 1722 ft 188 kts 221°
2026-04-22 18:47 64.84779 13.01997 1793 ft 181 kts 221°
2026-04-22 18:48 64.83804 13.00149 1743 ft 184 kts 219°
2026-04-22 18:48 64.82816 12.98234 1721 ft 183 kts 219°
2026-04-22 18:48 64.81834 12.96381 1756 ft 181 kts 221°
2026-04-22 18:48 64.80958 12.94243 1652 ft 185 kts 232°
2026-04-22 18:49 64.80077 12.92023 1569 ft 186 kts 217°
2026-04-22 18:49 64.79024 12.90375 1673 ft 179 kts 215°
2026-04-22 18:49 64.77951 12.88902 1580 ft 183 kts 198°
2026-04-22 18:49 64.76766 12.87967 1693 ft 177 kts 201°
2026-04-22 18:50 64.75636 12.86785 1640 ft 182 kts 210°
2026-04-22 18:50 64.74585 12.85184 1673 ft 179 kts 216°
2026-04-22 18:50 64.73654 12.83245 1665 ft 180 kts 229°
2026-04-22 18:50 64.72798 12.81100 1650 ft 180 kts 226°
2026-04-22 18:51 64.71882 12.79084 1586 ft 183 kts 223°
2026-04-22 18:51 64.70991 12.77050 1661 ft 178 kts 222°
2026-04-22 18:51 64.70006 12.75254 1577 ft 183 kts 213°
2026-04-22 18:51 64.68960 12.73549 1556 ft 182 kts 221°
2026-04-22 18:52 64.68059 12.71549 1618 ft 178 kts 223°
2026-04-22 18:52 64.67131 12.69643 1596 ft 179 kts 223°
2026-04-22 18:52 64.66193 12.67738 1598 ft 179 kts 221°
2026-04-22 18:52 64.65229 12.65878 1577 ft 180 kts 220°
2026-04-22 18:53 64.64246 12.64084 1594 ft 180 kts 216°
2026-04-22 18:53 64.63194 12.62470 1554 ft 182 kts 213°
2026-04-22 18:53 64.62134 12.60895 1593 ft 180 kts 211°
2026-04-22 18:53 64.61063 12.59349 1564 ft 182 kts 214°
2026-04-22 18:54 64.60018 12.57788 1641 ft 177 kts 211°
2026-04-22 18:54 64.58986 12.56244 1651 ft 177 kts 216°
2026-04-22 18:54 64.58025 12.54483 1707 ft 175 kts 222°
2026-04-22 18:54 64.57119 12.52582 1746 ft 176 kts 223°
2026-04-22 18:55 64.56208 12.50652 1718 ft 179 kts 223°
2026-04-22 18:55 64.55271 12.48740 1721 ft 179 kts 222°
2026-04-22 18:55 64.54439 12.46593 1673 ft 182 kts 233°
2026-04-22 18:55 64.53530 12.44506 1521 ft 188 kts 223°
2026-04-22 18:56 64.52767 12.42112 1562 ft 181 kts 238°
2026-04-22 18:56 64.52143 12.39656 1681 ft 176 kts 244°
2026-04-22 18:56 64.51575 12.37130 1694 ft 174 kts 230°
2026-04-22 18:56 64.50496 12.36008 1666 ft 176 kts 202°
2026-04-22 18:57 64.49446 12.34508 1612 ft 179 kts 212°
2026-04-22 18:57 64.48371 12.33102 1626 ft 178 kts 202°
2026-04-22 18:57 64.47186 12.32362 1688 ft 175 kts 196°
2026-04-22 18:57 64.46008 12.31938 1794 ft 172 kts 179°
2026-04-22 18:58 64.44905 12.32558 1825 ft 157 kts 156°
2026-04-22 18:58 64.43968 12.33796 1620 ft 159 kts 148°
2026-04-22 18:58 64.42953 12.34870 1444 ft 147 kts 163°
2026-04-22 18:58 64.42113 12.35297 1120 ft 115 kts 174°
2026-04-22 18:59 64.41364 12.35467 782 ft 109 kts 175°
2026-04-22 18:59 64.40619 12.35709 773 ft 107 kts 167°
2026-04-22 18:59 64.39904 12.36166 797 ft 111 kts 164°
2026-04-22 18:59 64.39127 12.36415 695 ft 119 kts 188°
2026-04-22 19:00 64.38429 12.35636 767 ft 108 kts 229°
2026-04-22 19:00 64.38470 12.34127 674 ft 119 kts 333°
2026-04-22 19:00 64.39198 12.34024 809 ft 102 kts 22°
2026-04-22 19:00 64.39825 12.34982 757 ft 109 kts 66°
2026-04-22 19:01 64.39400 12.35775 759 ft 110 kts 195°
2026-04-22 19:01 64.38721 12.35120 883 ft 105 kts 200°
2026-04-22 19:01 64.38075 12.34479 1040 ft 93 kts 259°
2026-04-22 19:01 64.38502 12.33911 1139 ft 102 kts 20°
2026-04-22 19:02 64.39199 12.34430 661 ft 101 kts 333°
2026-04-22 19:02 64.39701 12.33920 554 ft 44 kts 345°
2026-04-22 19:02 64.39763 12.33872 526 ft 0 kts 300°
2026-04-22 19:02 64.39762 12.33870 527 ft 0 kts 300°
2026-04-22 19:03 64.39761 12.33869 529 ft 0 kts 300°
2026-04-22 19:03 64.39760 12.33867 530 ft 0 kts 301°
2026-04-22 19:03 64.39759 12.33866 532 ft 0 kts 302°
2026-04-22 19:03 64.39760 12.33867 531 ft 0 kts 290°
2026-04-22 19:04 64.39760 12.33868 530 ft 1 kts 285°
2026-04-22 19:04 64.39760 12.33867 558 ft 0 kts 285°
2026-04-22 19:04 64.39897 12.33052 677 ft 113 kts 289°
2026-04-22 19:04 64.40173 12.32428 569 ft 0 kts 39°
2026-04-22 19:05 64.40291 12.32507 376 ft 22 kts 157°
2026-04-22 19:05 64.40297 12.32517 380 ft 0 kts 11°
2026-04-22 19:05 64.40297 12.32520 381 ft 0 kts 11°
2026-04-22 19:06 64.40296 12.32522 382 ft 0 kts 11°
2026-04-22 19:06 64.40296 12.32524 382 ft 0 kts 11°
2026-04-22 19:06 64.40296 12.32526 382 ft 0 kts 11°